sensor_id;sensor_type;location;lat;lon;timestamp;temperature;humidity
67192;HTU21D;54120;53.504;49.426;2023-01-10T00:01:32;-28.78;73.46
67192;HTU21D;54120;53.504;49.426;2023-01-10T00:03:58;-28.82;73.41
67192;HTU21D;54120;53.504;49.426;2023-01-10T00:06:25;-28.81;73.68
67192;HTU21D;54120;53.504;49.426;2023-01-10T00:08:51;-28.79;73.44
67192;HTU21D;54120;53.504;49.426;2023-01-10T00:11:17;-28.83;73.28
67192;HTU21D;54120;53.504;49.426;2023-01-10T00:14:01;-28.84;73.41
67192;HTU21D;54120;53.504;49.426;2023-01-10T00:16:28;-28.79;73.35
67192;HTU21D;54120;53.504;49.426;2023-01-10T00:18:54;-28.82;72.99
67192;HTU21D;54120;53.504;49.426;2023-01-10T00:21:20;-28.86;72.96
67192;HTU21D;54120;53.504;49.426;2023-01-10T00:23:46;-28.90;73.06
67192;HTU21D;54120;53.504;49.426;2023-01-10T00:26:13;-28.84;73.44
67192;HTU21D;54120;53.504;49.426;2023-01-10T00:28:40;-28.80;73.47
67192;HTU21D;54120;53.504;49.426;2023-01-10T00:31:08;-28.85;72.86
67192;HTU21D;54120;53.504;49.426;2023-01-10T00:33:36;-28.86;72.89
67192;HTU21D;54120;53.504;49.426;2023-01-10T00:36:05;-28.86;72.96
67192;HTU21D;54120;53.504;49.426;2023-01-10T00:38:32;-28.87;73.11
67192;HTU21D;54120;53.504;49.426;2023-01-10T00:41:00;-28.91;73.15
67192;HTU21D;54120;53.504;49.426;2023-01-10T00:43:26;-28.89;73.10
67192;HTU21D;54120;53.504;49.426;2023-01-10T00:46:14;-28.85;73.15
67192;HTU21D;54120;53.504;49.426;2023-01-10T00:48:40;-28.82;73.14
67192;HTU21D;54120;53.504;49.426;2023-01-10T00:51:06;-28.79;73.16
67192;HTU21D;54120;53.504;49.426;2023-01-10T00:53:38;-28.77;73.01
67192;HTU21D;54120;53.504;49.426;2023-01-10T00:56:04;-28.71;73.09
67192;HTU21D;54120;53.504;49.426;2023-01-10T00:58:31;-28.72;72.90
67192;HTU21D;54120;53.504;49.426;2023-01-10T01:00:57;-28.69;73.03
67192;HTU21D;54120;53.504;49.426;2023-01-10T01:03:24;-28.64;73.15
67192;HTU21D;54120;53.504;49.426;2023-01-10T01:05:50;-28.56;73.46
67192;HTU21D;54120;53.504;49.426;2023-01-10T01:08:18;-28.51;73.48
67192;HTU21D;54120;53.504;49.426;2023-01-10T01:10:45;-28.52;73.15
67192;HTU21D;54120;53.504;49.426;2023-01-10T01:13:15;-28.52;73.05
67192;HTU21D;54120;53.504;49.426;2023-01-10T01:15:42;-28.56;73.02
67192;HTU21D;54120;53.504;49.426;2023-01-10T01:18:11;-28.59;73.09
67192;HTU21D;54120;53.504;49.426;2023-01-10T01:20:39;-28.60;73.27
67192;HTU21D;54120;53.504;49.426;2023-01-10T01:23:05;-28.57;73.49
67192;HTU21D;54120;53.504;49.426;2023-01-10T01:25:31;-28.56;73.56
67192;HTU21D;54120;53.504;49.426;2023-01-10T01:27:59;-28.50;73.82
67192;HTU21D;54120;53.504;49.426;2023-01-10T01:30:25;-28.48;73.83
67192;HTU21D;54120;53.504;49.426;2023-01-10T01:32:51;-28.46;73.99
67192;HTU21D;54120;53.504;49.426;2023-01-10T01:35:17;-28.41;74.28
67192;HTU21D;54120;53.504;49.426;2023-01-10T01:37:43;-28.35;74.57
67192;HTU21D;54120;53.504;49.426;2023-01-10T01:40:18;-28.35;74.33
67192;HTU21D;54120;53.504;49.426;2023-01-10T01:42:45;-28.28;74.76
67192;HTU21D;54120;53.504;49.426;2023-01-10T01:47:48;-28.35;74.32
67192;HTU21D;54120;53.504;49.426;2023-01-10T01:53:45;-28.40;74.64
67192;HTU21D;54120;53.504;49.426;2023-01-10T01:56:24;-28.36;75.00
67192;HTU21D;54120;53.504;49.426;2023-01-10T01:58:57;-28.34;75.05
67192;HTU21D;54120;53.504;49.426;2023-01-10T02:01:24;-28.32;75.32
67192;HTU21D;54120;53.504;49.426;2023-01-10T02:03:59;-28.33;75.11
67192;HTU21D;54120;53.504;49.426;2023-01-10T02:06:26;-28.33;74.97
67192;HTU21D;54120;53.504;49.426;2023-01-10T02:10:00;-28.32;74.99
67192;HTU21D;54120;53.504;49.426;2023-01-10T02:11:55;-28.33;74.93
67192;HTU21D;54120;53.504;49.426;2023-01-10T02:14:23;-28.34;74.91
67192;HTU21D;54120;53.504;49.426;2023-01-10T02:16:50;-28.33;75.25
67192;HTU21D;54120;53.504;49.426;2023-01-10T02:27:28;-28.52;72.99
67192;HTU21D;54120;53.504;49.426;2023-01-10T02:40:45;-28.23;74.89
67192;HTU21D;54120;53.504;49.426;2023-01-10T02:43:16;-28.30;74.31
67192;HTU21D;54120;53.504;49.426;2023-01-10T02:45:57;-28.25;74.88
67192;HTU21D;54120;53.504;49.426;2023-01-10T02:48:24;-28.33;73.80
67192;HTU21D;54120;53.504;49.426;2023-01-10T02:53:28;-28.46;73.47
67192;HTU21D;54120;53.504;49.426;2023-01-10T03:04:13;-28.34;74.23
67192;HTU21D;54120;53.504;49.426;2023-01-10T03:06:46;-28.37;74.00
67192;HTU21D;54120;53.504;49.426;2023-01-10T03:12:13;-28.30;74.93
67192;HTU21D;54120;53.504;49.426;2023-01-10T03:14:44;-28.24;74.98
67192;HTU21D;54120;53.504;49.426;2023-01-10T03:17:13;-28.40;73.22
67192;HTU21D;54120;53.504;49.426;2023-01-10T03:19:46;-28.45;73.27
67192;HTU21D;54120;53.504;49.426;2023-01-10T03:22:16;-28.64;72.66
67192;HTU21D;54120;53.504;49.426;2023-01-10T03:24:46;-28.63;73.35
67192;HTU21D;54120;53.504;49.426;2023-01-10T03:27:20;-28.50;74.14
67192;HTU21D;54120;53.504;49.426;2023-01-10T03:29:58;-28.25;75.13
67192;HTU21D;54120;53.504;49.426;2023-01-10T03:32:27;-28.19;73.77
67192;HTU21D;54120;53.504;49.426;2023-01-10T03:34:55;-28.16;73.91
67192;HTU21D;54120;53.504;49.426;2023-01-10T03:37:41;-27.98;74.66
67192;HTU21D;54120;53.504;49.426;2023-01-10T03:40:25;-27.98;74.15
67192;HTU21D;54120;53.504;49.426;2023-01-10T03:43:00;-28.03;73.58
67192;HTU21D;54120;53.504;49.426;2023-01-10T03:46:16;-27.96;73.96
67192;HTU21D;54120;53.504;49.426;2023-01-10T03:48:46;-27.85;73.83
67192;HTU21D;54120;53.504;49.426;2023-01-10T03:51:14;-27.79;73.56
67192;HTU21D;54120;53.504;49.426;2023-01-10T03:53:42;-27.78;73.78
67192;HTU21D;54120;53.504;49.426;2023-01-10T03:56:13;-27.79;73.99
67192;HTU21D;54120;53.504;49.426;2023-01-10T03:58:40;-27.77;73.87
67192;HTU21D;54120;53.504;49.426;2023-01-10T04:01:06;-27.76;73.70
67192;HTU21D;54120;53.504;49.426;2023-01-10T04:03:32;-27.78;73.54
67192;HTU21D;54120;53.504;49.426;2023-01-10T04:05:58;-27.78;73.58
67192;HTU21D;54120;53.504;49.426;2023-01-10T04:08:24;-27.82;73.40
67192;HTU21D;54120;53.504;49.426;2023-01-10T04:10:51;-27.86;73.57
67192;HTU21D;54120;53.504;49.426;2023-01-10T04:13:17;-27.83;73.86
67192;HTU21D;54120;53.504;49.426;2023-01-10T04:15:43;-27.79;74.03
67192;HTU21D;54120;53.504;49.426;2023-01-10T04:18:09;-27.79;74.02
67192;HTU21D;54120;53.504;49.426;2023-01-10T04:20:35;-27.81;74.14
67192;HTU21D;54120;53.504;49.426;2023-01-10T04:23:02;-27.72;74.24
67192;HTU21D;54120;53.504;49.426;2023-01-10T04:25:28;-27.66;74.30
67192;HTU21D;54120;53.504;49.426;2023-01-10T04:27:54;-27.60;74.33
67192;HTU21D;54120;53.504;49.426;2023-01-10T04:30:21;-27.65;73.99
67192;HTU21D;54120;53.504;49.426;2023-01-10T04:32:47;-27.71;73.74
67192;HTU21D;54120;53.504;49.426;2023-01-10T04:35:13;-27.72;74.04
67192;HTU21D;54120;53.504;49.426;2023-01-10T04:37:39;-27.66;74.44
67192;HTU21D;54120;53.504;49.426;2023-01-10T04:40:06;-27.64;74.28
67192;HTU21D;54120;53.504;49.426;2023-01-10T04:42:32;-27.62;74.00
67192;HTU21D;54120;53.504;49.426;2023-01-10T04:44:58;-27.58;74.25
67192;HTU21D;54120;53.504;49.426;2023-01-10T04:47:24;-27.56;73.96
67192;HTU21D;54120;53.504;49.426;2023-01-10T04:49:50;-27.52;73.90
67192;HTU21D;54120;53.504;49.426;2023-01-10T04:52:16;-27.50;73.80
67192;HTU21D;54120;53.504;49.426;2023-01-10T04:54:42;-27.47;73.64
67192;HTU21D;54120;53.504;49.426;2023-01-10T04:57:08;-27.44;73.47
67192;HTU21D;54120;53.504;49.426;2023-01-10T04:59:35;-27.39;73.44
67192;HTU21D;54120;53.504;49.426;2023-01-10T05:02:01;-27.41;73.36
67192;HTU21D;54120;53.504;49.426;2023-01-10T05:04:27;-27.28;73.75
67192;HTU21D;54120;53.504;49.426;2023-01-10T05:06:53;-27.04;73.24
67192;HTU21D;54120;53.504;49.426;2023-01-10T05:09:19;-26.74;72.91
67192;HTU21D;54120;53.504;49.426;2023-01-10T05:11:45;-26.18;72.03
67192;HTU21D;54120;53.504;49.426;2023-01-10T05:14:11;-25.36;70.51
67192;HTU21D;54120;53.504;49.426;2023-01-10T05:16:37;-25.26;67.72
67192;HTU21D;54120;53.504;49.426;2023-01-10T05:19:03;-24.98;67.10
67192;HTU21D;54120;53.504;49.426;2023-01-10T05:21:31;-24.62;65.89
67192;HTU21D;54120;53.504;49.426;2023-01-10T05:23:57;-24.47;64.33
67192;HTU21D;54120;53.504;49.426;2023-01-10T05:26:23;-25.35;64.34
67192;HTU21D;54120;53.504;49.426;2023-01-10T05:28:49;-25.85;66.51
67192;HTU21D;54120;53.504;49.426;2023-01-10T05:31:17;-26.01;68.36
67192;HTU21D;54120;53.504;49.426;2023-01-10T05:33:49;-25.91;69.71
67192;HTU21D;54120;53.504;49.426;2023-01-10T05:36:16;-25.86;70.07
67192;HTU21D;54120;53.504;49.426;2023-01-10T05:38:42;-25.78;70.58
67192;HTU21D;54120;53.504;49.426;2023-01-10T05:41:09;-25.64;70.96
67192;HTU21D;54120;53.504;49.426;2023-01-10T05:43:35;-25.58;70.64
67192;HTU21D;54120;53.504;49.426;2023-01-10T05:46:01;-25.51;70.26
67192;HTU21D;54120;53.504;49.426;2023-01-10T05:48:28;-25.49;69.85
67192;HTU21D;54120;53.504;49.426;2023-01-10T05:50:54;-25.54;69.75
67192;HTU21D;54120;53.504;49.426;2023-01-10T05:53:22;-25.57;69.39
67192;HTU21D;54120;53.504;49.426;2023-01-10T05:56:07;-25.54;70.00
67192;HTU21D;54120;53.504;49.426;2023-01-10T05:58:33;-25.51;69.49
67192;HTU21D;54120;53.504;49.426;2023-01-10T06:01:00;-25.50;69.40
67192;HTU21D;54120;53.504;49.426;2023-01-10T06:03:26;-25.36;69.27
67192;HTU21D;54120;53.504;49.426;2023-01-10T06:05:53;-25.29;69.45
67192;HTU21D;54120;53.504;49.426;2023-01-10T06:08:19;-25.14;69.39
67192;HTU21D;54120;53.504;49.426;2023-01-10T06:10:46;-25.20;68.88
67192;HTU21D;54120;53.504;49.426;2023-01-10T06:13:12;-25.20;68.36
67192;HTU21D;54120;53.504;49.426;2023-01-10T06:15:38;-25.12;68.18
67192;HTU21D;54120;53.504;49.426;2023-01-10T06:18:05;-24.99;68.46
67192;HTU21D;54120;53.504;49.426;2023-01-10T06:20:31;-24.84;68.19
67192;HTU21D;54120;53.504;49.426;2023-01-10T06:22:57;-24.92;67.91
67192;HTU21D;54120;53.504;49.426;2023-01-10T06:25:25;-24.84;68.17
67192;HTU21D;54120;53.504;49.426;2023-01-10T06:27:52;-24.71;67.81
67192;HTU21D;54120;53.504;49.426;2023-01-10T06:30:18;-24.68;67.59
67192;HTU21D;54120;53.504;49.426;2023-01-10T06:32:44;-24.73;67.49
67192;HTU21D;54120;53.504;49.426;2023-01-10T06:35:10;-24.60;67.96
67192;HTU21D;54120;53.504;49.426;2023-01-10T06:37:37;-24.46;67.87
67192;HTU21D;54120;53.504;49.426;2023-01-10T06:40:04;-24.54;66.87
67192;HTU21D;54120;53.504;49.426;2023-01-10T06:42:31;-24.68;66.53
67192;HTU21D;54120;53.504;49.426;2023-01-10T06:44:57;-24.71;67.05
67192;HTU21D;54120;53.504;49.426;2023-01-10T06:47:23;-24.61;67.00
67192;HTU21D;54120;53.504;49.426;2023-01-10T06:49:49;-24.66;66.40
67192;HTU21D;54120;53.504;49.426;2023-01-10T06:52:15;-24.90;66.56
67192;HTU21D;54120;53.504;49.426;2023-01-10T06:54:41;-24.86;67.43
67192;HTU21D;54120;53.504;49.426;2023-01-10T06:57:08;-24.78;67.66
67192;HTU21D;54120;53.504;49.426;2023-01-10T06:59:35;-24.67;67.62
67192;HTU21D;54120;53.504;49.426;2023-01-10T07:02:01;-24.39;67.84
67192;HTU21D;54120;53.504;49.426;2023-01-10T07:04:27;-24.14;67.35
67192;HTU21D;54120;53.504;49.426;2023-01-10T07:06:53;-24.01;66.91
67192;HTU21D;54120;53.504;49.426;2023-01-10T07:09:19;-24.22;66.22
67192;HTU21D;54120;53.504;49.426;2023-01-10T07:11:45;-24.36;66.71
67192;HTU21D;54120;53.504;49.426;2023-01-10T07:14:11;-24.31;67.15
67192;HTU21D;54120;53.504;49.426;2023-01-10T07:16:37;-24.20;67.53
67192;HTU21D;54120;53.504;49.426;2023-01-10T07:19:03;-24.40;66.58
67192;HTU21D;54120;53.504;49.426;2023-01-10T07:21:29;-24.17;67.78
67192;HTU21D;54120;53.504;49.426;2023-01-10T07:23:55;-24.07;67.15
67192;HTU21D;54120;53.504;49.426;2023-01-10T07:26:22;-23.95;67.87
67192;HTU21D;54120;53.504;49.426;2023-01-10T07:28:49;-23.84;67.55
67192;HTU21D;54120;53.504;49.426;2023-01-10T07:31:17;-23.82;67.67
67192;HTU21D;54120;53.504;49.426;2023-01-10T07:33:44;-23.87;67.83
67192;HTU21D;54120;53.504;49.426;2023-01-10T07:36:10;-23.81;68.04
67192;HTU21D;54120;53.504;49.426;2023-01-10T07:38:36;-23.83;68.42
67192;HTU21D;54120;53.504;49.426;2023-01-10T07:41:03;-23.79;68.45
67192;HTU21D;54120;53.504;49.426;2023-01-10T07:43:30;-23.62;68.81
67192;HTU21D;54120;53.504;49.426;2023-01-10T07:46:04;-23.69;67.72
67192;HTU21D;54120;53.504;49.426;2023-01-10T07:48:34;-23.77;67.20
67192;HTU21D;54120;53.504;49.426;2023-01-10T07:51:01;-23.65;67.60
67192;HTU21D;54120;53.504;49.426;2023-01-10T07:53:30;-23.54;67.31
67192;HTU21D;54120;53.504;49.426;2023-01-10T07:56:01;-23.52;67.61
67192;HTU21D;54120;53.504;49.426;2023-01-10T07:58:28;-23.44;68.33
67192;HTU21D;54120;53.504;49.426;2023-01-10T08:01:02;-23.12;68.87
67192;HTU21D;54120;53.504;49.426;2023-01-10T08:03:28;-22.74;67.81
67192;HTU21D;54120;53.504;49.426;2023-01-10T08:05:59;-22.95;67.64
67192;HTU21D;54120;53.504;49.426;2023-01-10T08:08:25;-22.93;67.62
67192;HTU21D;54120;53.504;49.426;2023-01-10T08:10:52;-22.66;67.12
67192;HTU21D;54120;53.504;49.426;2023-01-10T08:13:18;-22.61;66.91
67192;HTU21D;54120;53.504;49.426;2023-01-10T08:15:44;-22.62;66.54
67192;HTU21D;54120;53.504;49.426;2023-01-10T08:18:12;-22.40;66.45
67192;HTU21D;54120;53.504;49.426;2023-01-10T08:20:38;-22.59;66.20
67192;HTU21D;54120;53.504;49.426;2023-01-10T08:23:04;-22.45;67.30
67192;HTU21D;54120;53.504;49.426;2023-01-10T08:25:30;-22.19;66.37
67192;HTU21D;54120;53.504;49.426;2023-01-10T08:27:56;-22.03;66.12
67192;HTU21D;54120;53.504;49.426;2023-01-10T08:30:22;-22.08;65.24
67192;HTU21D;54120;53.504;49.426;2023-01-10T08:32:48;-22.01;65.17
67192;HTU21D;54120;53.504;49.426;2023-01-10T08:35:15;-21.95;65.01
67192;HTU21D;54120;53.504;49.426;2023-01-10T08:37:44;-21.95;64.27
67192;HTU21D;54120;53.504;49.426;2023-01-10T08:40:10;-21.86;64.41
67192;HTU21D;54120;53.504;49.426;2023-01-10T08:42:37;-21.54;64.44
67192;HTU21D;54120;53.504;49.426;2023-01-10T08:45:04;-21.47;63.76
67192;HTU21D;54120;53.504;49.426;2023-01-10T08:47:30;-21.68;63.01
67192;HTU21D;54120;53.504;49.426;2023-01-10T08:49:57;-21.77;63.89
67192;HTU21D;54120;53.504;49.426;2023-01-10T08:52:24;-21.68;63.90
67192;HTU21D;54120;53.504;49.426;2023-01-10T08:54:50;-21.37;64.27
67192;HTU21D;54120;53.504;49.426;2023-01-10T08:57:17;-21.25;63.40
67192;HTU21D;54120;53.504;49.426;2023-01-10T08:59:43;-21.43;62.75
67192;HTU21D;54120;53.504;49.426;2023-01-10T09:02:13;-21.18;62.90
67192;HTU21D;54120;53.504;49.426;2023-01-10T09:04:39;-21.21;62.41
67192;HTU21D;54120;53.504;49.426;2023-01-10T09:07:06;-21.60;62.57
67192;HTU21D;54120;53.504;49.426;2023-01-10T09:09:34;-21.53;63.64
67192;HTU21D;54120;53.504;49.426;2023-01-10T09:12:02;-21.24;63.79
67192;HTU21D;54120;53.504;49.426;2023-01-10T09:14:49;-21.24;63.27
67192;HTU21D;54120;53.504;49.426;2023-01-10T09:17:16;-21.08;63.11
67192;HTU21D;54120;53.504;49.426;2023-01-10T09:19:42;-20.86;63.11
67192;HTU21D;54120;53.504;49.426;2023-01-10T09:22:08;-20.91;62.11
67192;HTU21D;54120;53.504;49.426;2023-01-10T09:24:35;-21.10;62.88
67192;HTU21D;54120;53.504;49.426;2023-01-10T09:27:04;-20.86;63.15
67192;HTU21D;54120;53.504;49.426;2023-01-10T09:29:31;-20.94;62.11
67192;HTU21D;54120;53.504;49.426;2023-01-10T09:31:57;-21.25;62.29
67192;HTU21D;54120;53.504;49.426;2023-01-10T09:34:24;-21.42;62.73
67192;HTU21D;54120;53.504;49.426;2023-01-10T09:36:52;-21.56;63.48
67192;HTU21D;54120;53.504;49.426;2023-01-10T09:39:19;-21.64;63.80
67192;HTU21D;54120;53.504;49.426;2023-01-10T09:52:52;-21.31;63.84
67192;HTU21D;54120;53.504;49.426;2023-01-10T09:55:26;-21.13;63.48
67192;HTU21D;54120;53.504;49.426;2023-01-10T09:57:58;-21.11;63.15
67192;HTU21D;54120;53.504;49.426;2023-01-10T10:00:47;-21.11;63.37
67192;HTU21D;54120;53.504;49.426;2023-01-10T10:03:26;-21.01;63.27
67192;HTU21D;54120;53.504;49.426;2023-01-10T10:05:55;-21.08;63.63
67192;HTU21D;54120;53.504;49.426;2023-01-10T10:08:23;-20.87;64.22
67192;HTU21D;54120;53.504;49.426;2023-01-10T10:24:29;-21.67;65.72
67192;HTU21D;54120;53.504;49.426;2023-01-10T10:27:19;-21.72;66.60
67192;HTU21D;54120;53.504;49.426;2023-01-10T10:38:11;-21.70;66.45
67192;HTU21D;54120;53.504;49.426;2023-01-10T10:40:41;-21.90;66.76
67192;HTU21D;54120;53.504;49.426;2023-01-10T10:43:23;-21.95;67.06
67192;HTU21D;54120;53.504;49.426;2023-01-10T10:45:57;-21.95;67.72
67192;HTU21D;54120;53.504;49.426;2023-01-10T10:48:32;-21.80;68.86
67192;HTU21D;54120;53.504;49.426;2023-01-10T10:53:28;-21.75;67.61
67192;HTU21D;54120;53.504;49.426;2023-01-10T10:55:56;-21.79;67.83
67192;HTU21D;54120;53.504;49.426;2023-01-10T10:58:23;-21.81;67.48
67192;HTU21D;54120;53.504;49.426;2023-01-10T11:00:51;-21.90;67.72
67192;HTU21D;54120;53.504;49.426;2023-01-10T11:06:14;-21.92;68.44
67192;HTU21D;54120;53.504;49.426;2023-01-10T11:08:43;-21.76;68.44
67192;HTU21D;54120;53.504;49.426;2023-01-10T11:11:26;-21.70;67.98
67192;HTU21D;54120;53.504;49.426;2023-01-10T11:13:59;-21.83;67.84
67192;HTU21D;54120;53.504;49.426;2023-01-10T11:16:40;-21.84;68.65
67192;HTU21D;54120;53.504;49.426;2023-01-10T11:19:28;-21.80;68.64
67192;HTU21D;54120;53.504;49.426;2023-01-10T11:21:59;-21.75;68.84
67192;HTU21D;54120;53.504;49.426;2023-01-10T11:24:39;-21.81;68.78
67192;HTU21D;54120;53.504;49.426;2023-01-10T11:27:57;-21.99;69.20
67192;HTU21D;54120;53.504;49.426;2023-01-10T11:30:27;-21.91;69.58
67192;HTU21D;54120;53.504;49.426;2023-01-10T11:33:00;-21.87;70.00
67192;HTU21D;54120;53.504;49.426;2023-01-10T11:35:38;-21.86;69.84
67192;HTU21D;54120;53.504;49.426;2023-01-10T11:40:54;-22.32;70.98
67192;HTU21D;54120;53.504;49.426;2023-01-10T11:45:56;-22.36;72.25
67192;HTU21D;54120;53.504;49.426;2023-01-10T11:48:25;-22.29;72.15
67192;HTU21D;54120;53.504;49.426;2023-01-10T11:50:53;-22.49;72.42
67192;HTU21D;54120;53.504;49.426;2023-01-10T11:53:41;-22.55;73.09
67192;HTU21D;54120;53.504;49.426;2023-01-10T11:56:11;-22.62;73.19
67192;HTU21D;54120;53.504;49.426;2023-01-10T11:58:40;-22.72;73.44
67192;HTU21D;54120;53.504;49.426;2023-01-10T12:03:54;-22.85;74.96
67192;HTU21D;54120;53.504;49.426;2023-01-10T12:06:21;-22.84;75.15
67192;HTU21D;54120;53.504;49.426;2023-01-10T12:08:47;-22.75;75.60
67192;HTU21D;54120;53.504;49.426;2023-01-10T12:13:50;-22.92;75.79
67192;HTU21D;54120;53.504;49.426;2023-01-10T12:16:25;-22.99;76.36
67192;HTU21D;54120;53.504;49.426;2023-01-10T12:18:54;-23.06;76.98
67192;HTU21D;54120;53.504;49.426;2023-01-10T12:21:49;-23.14;77.48
67192;HTU21D;54120;53.504;49.426;2023-01-10T12:24:27;-23.15;77.71
67192;HTU21D;54120;53.504;49.426;2023-01-10T12:26:56;-23.15;77.84
67192;HTU21D;54120;53.504;49.426;2023-01-10T12:29:32;-23.15;77.90
67192;HTU21D;54120;53.504;49.426;2023-01-10T12:31:59;-23.08;78.56
67192;HTU21D;54120;53.504;49.426;2023-01-10T12:34:46;-23.07;78.21
67192;HTU21D;54120;53.504;49.426;2023-01-10T12:37:54;-23.19;77.97
67192;HTU21D;54120;53.504;49.426;2023-01-10T12:40:44;-23.25;78.07
67192;HTU21D;54120;53.504;49.426;2023-01-10T12:46:11;-23.34;78.09
67192;HTU21D;54120;53.504;49.426;2023-01-10T12:48:42;-23.39;78.43
67192;HTU21D;54120;53.504;49.426;2023-01-10T12:51:18;-23.43;78.47
67192;HTU21D;54120;53.504;49.426;2023-01-10T12:53:54;-23.46;78.35
67192;HTU21D;54120;53.504;49.426;2023-01-10T12:56:21;-23.50;78.29
67192;HTU21D;54120;53.504;49.426;2023-01-10T12:59:16;-23.54;78.43
67192;HTU21D;54120;53.504;49.426;2023-01-10T13:01:53;-23.53;78.39
67192;HTU21D;54120;53.504;49.426;2023-01-10T13:04:21;-23.56;78.59
67192;HTU21D;54120;53.504;49.426;2023-01-10T13:06:49;-23.58;78.66
67192;HTU21D;54120;53.504;49.426;2023-01-10T13:09:27;-23.58;78.84
67192;HTU21D;54120;53.504;49.426;2023-01-10T13:12:28;-23.60;78.88
67192;HTU21D;54120;53.504;49.426;2023-01-10T13:18:00;-23.50;79.11
67192;HTU21D;54120;53.504;49.426;2023-01-10T13:20:39;-23.52;79.06
67192;HTU21D;54120;53.504;49.426;2023-01-10T13:23:32;-23.44;79.30
67192;HTU21D;54120;53.504;49.426;2023-01-10T13:26:02;-23.44;78.92
67192;HTU21D;54120;53.504;49.426;2023-01-10T13:28:31;-23.46;78.64
67192;HTU21D;54120;53.504;49.426;2023-01-10T13:31:00;-23.50;78.63
67192;HTU21D;54120;53.504;49.426;2023-01-10T13:33:39;-23.52;78.62
67192;HTU21D;54120;53.504;49.426;2023-01-10T13:36:20;-23.53;78.72
67192;HTU21D;54120;53.504;49.426;2023-01-10T13:38:58;-23.53;79.08
67192;HTU21D;54120;53.504;49.426;2023-01-10T13:55:56;-23.47;79.27
67192;HTU21D;54120;53.504;49.426;2023-01-10T14:01:37;-23.56;78.11
67192;HTU21D;54120;53.504;49.426;2023-01-10T14:07:24;-23.64;78.87
67192;HTU21D;54120;53.504;49.426;2023-01-10T14:10:04;-23.67;78.71
67192;HTU21D;54120;53.504;49.426;2023-01-10T14:12:52;-23.66;79.00
67192;HTU21D;54120;53.504;49.426;2023-01-10T14:15:29;-23.66;79.46
67192;HTU21D;54120;53.504;49.426;2023-01-10T14:18:20;-23.64;79.49
67192;HTU21D;54120;53.504;49.426;2023-01-10T14:20:57;-23.67;79.49
67192;HTU21D;54120;53.504;49.426;2023-01-10T14:23:31;-23.67;79.49
67192;HTU21D;54120;53.504;49.426;2023-01-10T14:25:59;-23.68;79.18
67192;HTU21D;54120;53.504;49.426;2023-01-10T14:28:28;-23.67;79.78
67192;HTU21D;54120;53.504;49.426;2023-01-10T14:33:27;-23.74;79.87
67192;HTU21D;54120;53.504;49.426;2023-01-10T14:36:00;-23.68;80.00
67192;HTU21D;54120;53.504;49.426;2023-01-10T14:38:30;-23.67;80.02
67192;HTU21D;54120;53.504;49.426;2023-01-10T14:43:49;-23.71;79.72
67192;HTU21D;54120;53.504;49.426;2023-01-10T14:46:23;-23.72;79.81
67192;HTU21D;54120;53.504;49.426;2023-01-10T14:48:51;-23.67;80.04
67192;HTU21D;54120;53.504;49.426;2023-01-10T14:51:30;-23.67;80.10
67192;HTU21D;54120;53.504;49.426;2023-01-10T14:54:10;-23.69;79.96
67192;HTU21D;54120;53.504;49.426;2023-01-10T14:56:42;-23.74;80.17
67192;HTU21D;54120;53.504;49.426;2023-01-10T15:01:47;-23.67;80.40
67192;HTU21D;54120;53.504;49.426;2023-01-10T15:04:18;-23.63;80.43
67192;HTU21D;54120;53.504;49.426;2023-01-10T15:06:59;-23.59;80.53
67192;HTU21D;54120;53.504;49.426;2023-01-10T15:09:29;-23.60;80.40
67192;HTU21D;54120;53.504;49.426;2023-01-10T15:11:59;-23.64;80.25
67192;HTU21D;54120;53.504;49.426;2023-01-10T15:14:28;-23.59;80.57
67192;HTU21D;54120;53.504;49.426;2023-01-10T15:17:00;-23.60;80.24
67192;HTU21D;54120;53.504;49.426;2023-01-10T15:19:33;-23.58;80.56
67192;HTU21D;54120;53.504;49.426;2023-01-10T15:22:00;-23.53;80.66
67192;HTU21D;54120;53.504;49.426;2023-01-10T15:24:35;-23.63;78.98
67192;HTU21D;54120;53.504;49.426;2023-01-10T15:27:05;-23.75;79.21
67192;HTU21D;54120;53.504;49.426;2023-01-10T15:29:34;-23.75;80.10
67192;HTU21D;54120;53.504;49.426;2023-01-10T15:32:10;-23.76;80.10
67192;HTU21D;54120;53.504;49.426;2023-01-10T15:34:37;-23.84;80.01
67192;HTU21D;54120;53.504;49.426;2023-01-10T15:37:05;-23.75;80.81
67192;HTU21D;54120;53.504;49.426;2023-01-10T15:39:34;-23.81;79.98
67192;HTU21D;54120;53.504;49.426;2023-01-10T15:42:10;-23.76;80.61
67192;HTU21D;54120;53.504;49.426;2023-01-10T15:44:44;-23.91;79.53
67192;HTU21D;54120;53.504;49.426;2023-01-10T15:50:26;-24.25;76.76
67192;HTU21D;54120;53.504;49.426;2023-01-10T15:53:02;-24.42;76.92
67192;HTU21D;54120;53.504;49.426;2023-01-10T15:55:47;-24.34;78.47
67192;HTU21D;54120;53.504;49.426;2023-01-10T16:00:54;-23.94;81.01
67192;HTU21D;54120;53.504;49.426;2023-01-10T16:03:38;-24.02;79.40
67192;HTU21D;54120;53.504;49.426;2023-01-10T16:06:16;-23.87;80.63
67192;HTU21D;54120;53.504;49.426;2023-01-10T16:08:47;-23.87;79.08
67192;HTU21D;54120;53.504;49.426;2023-01-10T16:14:27;-23.83;79.56
67192;HTU21D;54120;53.504;49.426;2023-01-10T16:16:53;-23.79;79.21
67192;HTU21D;54120;53.504;49.426;2023-01-10T16:19:19;-23.87;78.47
67192;HTU21D;54120;53.504;49.426;2023-01-10T16:21:49;-24.12;75.79
67192;HTU21D;54120;53.504;49.426;2023-01-10T16:24:19;-24.35;74.65
67192;HTU21D;54120;53.504;49.426;2023-01-10T16:26:47;-24.18;78.59
67192;HTU21D;54120;53.504;49.426;2023-01-10T16:29:15;-23.88;80.36
67192;HTU21D;54120;53.504;49.426;2023-01-10T16:31:42;-23.68;80.59
67192;HTU21D;54120;53.504;49.426;2023-01-10T16:34:08;-23.54;80.46
67192;HTU21D;54120;53.504;49.426;2023-01-10T16:36:34;-23.51;80.22
67192;HTU21D;54120;53.504;49.426;2023-01-10T16:39:12;-23.62;78.88
67192;HTU21D;54120;53.504;49.426;2023-01-10T16:41:40;-23.76;77.99
67192;HTU21D;54120;53.504;49.426;2023-01-10T16:44:25;-23.64;80.00
67192;HTU21D;54120;53.504;49.426;2023-01-10T16:46:51;-23.83;78.20
67192;HTU21D;54120;53.504;49.426;2023-01-10T16:49:19;-24.09;77.44
67192;HTU21D;54120;53.504;49.426;2023-01-10T16:51:53;-24.38;77.09
67192;HTU21D;54120;53.504;49.426;2023-01-10T16:54:22;-24.50;77.65
67192;HTU21D;54120;53.504;49.426;2023-01-10T16:56:50;-24.57;77.70
67192;HTU21D;54120;53.504;49.426;2023-01-10T16:59:16;-24.42;79.46
67192;HTU21D;54120;53.504;49.426;2023-01-10T17:01:47;-24.26;79.32
67192;HTU21D;54120;53.504;49.426;2023-01-10T17:04:20;-24.20;79.46
67192;HTU21D;54120;53.504;49.426;2023-01-10T17:06:47;-24.13;77.88
67192;HTU21D;54120;53.504;49.426;2023-01-10T17:09:26;-24.13;78.35
67192;HTU21D;54120;53.504;49.426;2023-01-10T17:11:55;-24.10;78.69
67192;HTU21D;54120;53.504;49.426;2023-01-10T17:14:28;-24.05;78.73
67192;HTU21D;54120;53.504;49.426;2023-01-10T17:16:55;-24.07;78.10
67192;HTU21D;54120;53.504;49.426;2023-01-10T17:19:21;-24.18;78.40